KFYV/FYV METAR and TAF weather

Enter ICAO airport designator
Station Type Date Time Source
KFYV METAR 2020/10/22 02:53 UTC NOAA

KFYV 220253Z AUTO 00000KT 10SM CLR 17/16 A3004 RMK AO2 SLP161 T01720156 51007


Station Type Date Time Source
KFYV Decoded METAR 2020/10/22 02:53 UTC NOAA

FAYETTEVILLE DRAKE FIELD, AR, United States (KFYV) 36-00N 94-10W 379M
Oct 21, 2020 - 10:53 PM EDT / 2020.10.22 0253 UTC
Wind: Calm:0
Visibility: 10 mile(s):0
Sky conditions: clear
Temperature: 63.0 F (17.2 C)
Dew Point: 60.1 F (15.6 C)
Relative Humidity: 90%
Pressure (altimeter): 30.04 in. Hg (1017 hPa)
Pressure tendency: 0.02 inches (0.7 hPa) higher than three hours ago
ob: KFYV 220253Z AUTO 00000KT 10SM CLR 17/16 A3004 RMK AO2 SLP161 T01720156 51007
cycle: 3

Station Type Date Time Source
KFYV TAF 2020/10/21 18:22 UTC NOAA

TAF KFYV 211720Z 2118/2218 19011G19KT P6SM SCT035
FM220000 17006KT P6SM SCT250
FM221500 18013G20KT P6SM SCT250

Example: see airport list